Aérodrome :
LOGIN :

S'inscrire | Disclaimer

   EN    FR    IT 

 










Légende :    VFR   VFR Marginal   IFR   IFR Intensif   IFR Très Intensif
Visi : 
Plafond : 
>= 8 km
>= 3000ft
5 à 8 km
1000 à 3000 ft
1500m à 5 km
500 à 1000 ft
800 à 1500m
200 à 500 ft
< 800m
< 200 ft
Symboles :   Orages  Brouillard  Fortes neiges  Fortes précipitations  Vent > 20 kt
SIGMETs :   Divers  Orages  Givrage  Turbulence  Onde Orograph.  Cendres Volcan.







- Altitude de l'aérodrome : 6 ft
- Code IATA : PSA


LIRP - Galileo Galilei Pisa

DERNIER METAR :
  • 241415Z 28009KT 9999 FEW060 28/09 Q1015 NOSIG

METARs EXPIRÉS :
  • 241345Z 24006KT 9999 FEW060 28/08 Q1015 NOSIG
  • 241315Z 33003KT 270V050 9999 FEW060 27/07 Q1016 NOSIG
  • 241245Z 18002KT 9999 FEW040 27/07 Q1016 NOSIG
  • 241215Z VRB03KT 9999 FEW040 27/07 Q1016 NOSIG
  • 241145Z 13004KT 080V200 CAVOK 26/08 Q1016 NOSIG

TAF TAF LIRP
Valide du 24 à 06h jusqu'au 25 à 06h UTC


241100Z 2406/2506 09007KT 9999 FEW070
TEMPO 2414/2419 31012KT
Pas de NOTAMs connus pour ce terrain.
1 SIGMET publié pour la FIR Milano (LIMM) :
 
Orages fréquents
LIMM SIGMET 1 VALID 241330/241630 LIIP
LIMM MILANO FIR FRQ TS OBS WI N4550 E00704 - N4439 E00648 - N4359 E00726 - N4431 E00853 - N4550 E00704 TOP ABV FL310 STNR NC=



MET'MAP, la Météo Aéronautique d'un coup d'oeil ! - Copyright ORBIFLY Décembre 2007 - Disclaimer

ORBIFLY MET'MAP TEAM :

Programmation & Développement : Alexandra Zaïnal
Conception & Développement : Baudouin d'Aumeries
Co-Programmation & Développement : Marc-Olivier Méhu
Soutien technique & logistique : Manuel Goepfert

Contact : metmap@orbifly.com




SOURCES & CREDITS :

   NOAA